Time;durP1;ratioP1;P1;durP2;ratioP2;P2;SDS_P1;SDS_P2;PMS_P1;PMS_P2;Temp;Humidity;BMP_temperature;BMP_pressure;BME280_temperature;BME280_humidity;BME280_pressure;Samples;Min_cycle;Max_cycle;Signal;HPM_P1;HPM_P2
2023/05/18 00:01:53;;;;;;;10.70;2.33;;;12.30;99.90;;;;;;5032016;28;20034;-85
2023/05/18 00:04:22;;;;;;;7.72;2.10;;;12.30;99.90;;;;;;5031394;28;20026;-85
2023/05/18 00:06:49;;;;;;;3.45;1.85;;;12.30;99.90;;;;;;5031840;28;20029;-85
2023/05/18 00:09:14;;;;;;;6.03;1.75;;;12.30;99.90;;;;;;5032329;28;20072;-85
2023/05/18 00:11:40;;;;;;;9.77;1.92;;;12.30;99.90;;;;;;5031177;28;20100;-84
2023/05/18 00:14:07;;;;;;;7.50;2.55;;;12.30;99.90;;;;;;5031915;28;20419;-85
2023/05/18 00:16:32;;;;;;;7.25;2.40;;;12.30;99.90;;;;;;5031691;28;20032;-85
2023/05/18 00:18:58;;;;;;;6.90;2.20;;;12.30;99.90;;;;;;5031478;28;20022;-86
2023/05/18 00:21:29;;;;;;;6.28;1.85;;;12.30;99.90;;;;;;5032442;28;20022;-85
2023/05/18 00:23:55;;;;;;;6.75;2.38;;;12.30;99.90;;;;;;5031369;28;20107;-85
2023/05/18 00:26:20;;;;;;;6.80;2.20;;;12.30;99.90;;;;;;5031233;28;20026;-85
2023/05/18 00:28:46;;;;;;;9.32;2.35;;;12.30;99.90;;;;;;5031742;28;20541;-84
2023/05/18 00:31:11;;;;;;;5.93;2.17;;;12.20;99.90;;;;;;5031619;28;20033;-85
2023/05/18 00:33:37;;;;;;;10.38;1.60;;;12.30;99.90;;;;;;5030891;28;20099;-85
2023/05/18 00:36:03;;;;;;;8.55;2.13;;;12.20;99.90;;;;;;5030502;28;20029;-84
2023/05/18 00:38:28;;;;;;;6.85;2.28;;;12.20;99.90;;;;;;5031571;28;20109;-85
2023/05/18 00:40:54;;;;;;;8.80;2.78;;;12.30;99.90;;;;;;5030482;28;20026;-84
2023/05/18 00:43:20;;;;;;;8.65;2.10;;;12.20;99.90;;;;;;5031595;28;20032;-85
2023/05/18 00:45:45;;;;;;;6.78;2.35;;;12.20;99.90;;;;;;5030670;28;20049;-85
2023/05/18 00:48:11;;;;;;;6.38;2.33;;;12.20;99.90;;;;;;5031485;28;20030;-85
2023/05/18 00:50:37;;;;;;;7.53;2.30;;;12.20;99.90;;;;;;5031024;28;20035;-85
2023/05/18 00:53:02;;;;;;;7.22;2.05;;;12.20;99.90;;;;;;5030631;28;20026;-85
2023/05/18 00:55:28;;;;;;;5.65;2.33;;;12.20;99.90;;;;;;5031529;28;20034;-85
2023/05/18 00:57:55;;;;;;;6.07;2.03;;;12.10;99.90;;;;;;5031154;28;20075;-84
2023/05/18 01:00:21;;;;;;;7.10;2.28;;;12.10;99.90;;;;;;5030656;28;20022;-85
2023/05/18 01:02:49;;;;;;;8.15;2.67;;;12.70;99.90;;;;;;5030833;28;20029;-85
2023/05/18 01:05:16;;;;;;;6.28;2.08;;;12.10;99.90;;;;;;5031018;28;20034;-84
2023/05/18 01:07:42;;;;;;;4.53;1.83;;;12.10;99.90;;;;;;5030050;28;20064;-85
2023/05/18 01:10:13;;;;;;;9.57;2.45;;;12.10;99.90;;;;;;5031019;28;20093;-85
2023/05/18 01:12:56;;;;;;;8.13;2.00;;;12.10;99.90;;;;;;5030566;28;20573;-85
2023/05/18 01:15:32;;;;;;;11.25;1.90;;;12.10;99.90;;;;;;5030662;28;20025;-85
2023/05/18 01:18:04;;;;;;;4.50;2.15;;;12.10;99.90;;;;;;5030877;28;20033;-85
2023/05/18 01:20:44;;;;;;;10.70;2.38;;;12.10;99.90;;;;;;5031318;28;20056;-85
2023/05/18 01:23:28;;;;;;;5.95;1.80;;;12.10;99.90;;;;;;5030842;28;20102;-84
2023/05/18 01:25:54;;;;;;;7.43;2.15;;;12.10;99.90;;;;;;5030573;28;20025;-85
2023/05/18 01:28:31;;;;;;;7.50;2.33;;;12.10;99.90;;;;;;5030023;28;20021;-84
2023/05/18 01:30:57;;;;;;;13.35;2.53;;;12.10;99.90;;;;;;5030897;28;20045;-84
2023/05/18 01:33:24;;;;;;;5.82;2.03;;;12.10;99.90;;;;;;5030848;28;20104;-85
2023/05/18 01:35:50;;;;;;;7.85;1.83;;;12.10;99.90;;;;;;5029645;28;20044;-84
2023/05/18 01:38:21;;;;;;;6.10;1.90;;;12.10;99.90;;;;;;5030613;28;20021;-85
2023/05/18 01:41:12;;;;;;;6.70;2.70;;;12.00;99.90;;;;;;5030229;28;20109;-84
2023/05/18 01:43:57;;;;;;;3.75;2.15;;;12.00;99.90;;;;;;5022458;28;20500;-85
2023/05/18 01:46:53;;;;;;;5.13;2.08;;;12.00;99.90;;;;;;5030618;28;20037;-84
2023/05/18 01:49:46;;;;;;;9.80;2.20;;;12.00;99.90;;;;;;5029682;28;20033;-85
2023/05/18 01:52:21;;;;;;;5.50;2.08;;;12.00;99.90;;;;;;5030328;28;20049;-85
2023/05/18 01:54:52;;;;;;;7.30;2.13;;;11.90;99.90;;;;;;5030067;28;20026;-84
2023/05/18 01:57:20;;;;;;;7.03;2.53;;;11.90;99.90;;;;;;5029703;28;20032;-85
2023/05/18 01:59:46;;;;;;;4.45;2.15;;;11.90;99.90;;;;;;5029882;28;20554;-85
2023/05/18 02:02:12;;;;;;;7.10;2.38;;;11.90;99.90;;;;;;5030550;28;20060;-85
2023/05/18 02:04:38;;;;;;;7.50;2.85;;;11.80;99.90;;;;;;5029402;28;20049;-85
2023/05/18 02:07:03;;;;;;;5.82;2.25;;;11.90;99.90;;;;;;5030221;28;20030;-85
2023/05/18 02:09:29;;;;;;;13.18;2.60;;;12.70;99.90;;;;;;5030261;28;20393;-84
2023/05/18 02:11:55;;;;;;;3.30;1.75;;;11.80;99.90;;;;;;5029000;28;20040;-84
2023/05/18 02:14:20;;;;;;;9.48;2.10;;;11.80;99.90;;;;;;5029912;28;20029;-84
2023/05/18 02:16:51;;;;;;;5.60;2.20;;;11.80;99.90;;;;;;5030155;28;20477;-85
2023/05/18 02:19:18;;;;;;;5.55;2.08;;;11.80;99.90;;;;;;5029696;28;20485;-85
2023/05/18 02:21:43;;;;;;;7.40;2.00;;;11.80;99.90;;;;;;5029833;28;20060;-85
2023/05/18 02:24:10;;;;;;;9.10;2.33;;;11.70;99.90;;;;;;5029363;28;20045;-85
2023/05/18 02:26:36;;;;;;;3.45;1.63;;;11.80;99.90;;;;;;5029637;28;20429;-85
2023/05/18 02:29:02;;;;;;;7.65;1.90;;;11.80;99.90;;;;;;5029922;28;20060;-85
2023/05/18 02:31:29;;;;;;;5.50;1.90;;;11.70;99.90;;;;;;5029418;28;20045;-85
2023/05/18 02:33:55;;;;;;;5.35;2.67;;;11.70;99.90;;;;;;5029774;28;20017;-85
2023/05/18 02:36:21;;;;;;;10.52;1.88;;;11.70;99.90;;;;;;5029810;28;20070;-85
2023/05/18 02:38:47;;;;;;;12.50;2.60;;;11.80;99.90;;;;;;5028856;28;20030;-85
2023/05/18 02:41:13;;;;;;;7.40;2.00;;;11.70;99.90;;;;;;5029713;28;20026;-84
2023/05/18 02:43:39;;;;;;;3.13;1.67;;;11.80;99.90;;;;;;5029377;28;20044;-85
2023/05/18 02:46:05;;;;;;;5.78;1.88;;;11.80;99.90;;;;;;5029085;28;20384;-84
2023/05/18 02:48:30;;;;;;;4.20;2.00;;;11.70;99.90;;;;;;5029566;28;20131;-84
2023/05/18 02:50:57;;;;;;;3.42;1.77;;;11.70;99.90;;;;;;5029245;28;20033;-84
2023/05/18 02:53:23;;;;;;;9.40;2.20;;;11.70;99.90;;;;;;5028874;28;20048;-85
2023/05/18 02:55:48;;;;;;;4.20;1.98;;;11.70;99.90;;;;;;5029132;28;20407;-85
2023/05/18 02:58:14;;;;;;;8.82;2.17;;;11.70;99.90;;;;;;5029119;28;20117;-85
2023/05/18 03:00:40;;;;;;;4.88;2.95;;;11.70;99.90;;;;;;5028127;28;20029;-84
2023/05/18 03:03:09;;;;;;;6.63;1.85;;;11.60;99.90;;;;;;5029558;28;20104;-84
2023/05/18 03:05:38;;;;;;;5.68;2.60;;;11.60;99.90;;;;;;5028689;28;20539;-84
2023/05/18 03:08:03;;;;;;;8.90;1.90;;;11.60;99.90;;;;;;5028436;28;20029;-84
2023/05/18 03:10:29;;;;;;;6.28;2.05;;;11.60;99.90;;;;;;5029170;28;20033;-84
2023/05/18 03:12:54;;;;;;;6.75;2.03;;;11.60;99.90;;;;;;5029208;28;20025;-84
2023/05/18 03:15:20;;;;;;;8.95;2.97;;;11.60;99.90;;;;;;5028725;28;20017;-84
2023/05/18 03:17:46;;;;;;;5.65;2.05;;;11.60;99.90;;;;;;5029496;28;20039;-85
2023/05/18 03:20:14;;;;;;;5.00;2.60;;;11.50;99.90;;;;;;5028998;28;20028;-85
2023/05/18 03:22:40;;;;;;;6.82;2.28;;;11.50;99.90;;;;;;5028307;28;20029;-85
2023/05/18 03:25:06;;;;;;;4.00;2.08;;;11.50;99.90;;;;;;5029082;28;20468;-84
2023/05/18 03:27:32;;;;;;;5.90;2.15;;;11.50;99.90;;;;;;5028416;28;20044;-85
2023/05/18 03:29:58;;;;;;;5.43;2.42;;;11.50;99.90;;;;;;5029205;28;20044;-85
2023/05/18 03:32:24;;;;;;;11.30;3.20;;;11.50;99.90;;;;;;5028966;28;20029;-85
2023/05/18 03:34:51;;;;;;;6.45;2.22;;;11.50;99.90;;;;;;5028013;28;20102;-85
2023/05/18 03:37:17;;;;;;;6.32;2.28;;;11.50;99.90;;;;;;5028968;28;20484;-85
2023/05/18 03:39:42;;;;;;;9.45;1.75;;;11.50;99.90;;;;;;5028568;28;20060;-86
2023/05/18 03:42:08;;;;;;;4.22;2.10;;;11.50;99.90;;;;;;5028546;28;20030;-85
2023/05/18 03:44:34;;;;;;;6.97;2.05;;;11.50;99.90;;;;;;5028635;28;20125;-85
2023/05/18 03:46:59;;;;;;;8.40;1.90;;;11.40;99.90;;;;;;5028870;28;20433;-85
2023/05/18 03:49:25;;;;;;;5.78;2.20;;;11.50;99.90;;;;;;5028338;28;20577;-85
2023/05/18 03:51:53;;;;;;;9.50;1.83;;;11.40;99.90;;;;;;5028532;28;20385;-84
2023/05/18 03:54:18;;;;;;;6.10;2.15;;;11.50;99.90;;;;;;5028694;28;20106;-85
2023/05/18 03:56:45;;;;;;;7.60;2.80;;;11.40;99.90;;;;;;5028018;28;20479;-85
2023/05/18 03:59:11;;;;;;;9.15;2.25;;;11.40;99.90;;;;;;5028875;28;20029;-85
2023/05/18 04:01:37;;;;;;;7.22;2.60;;;11.40;99.90;;;;;;5028220;28;20048;-84
2023/05/18 04:04:02;;;;;;;6.07;2.47;;;12.20;99.90;;;;;;5027810;28;20383;-85
2023/05/18 04:06:28;;;;;;;7.25;2.10;;;11.30;99.90;;;;;;5028498;28;20021;-84
2023/05/18 04:08:54;;;;;;;6.80;2.30;;;11.40;99.90;;;;;;5028277;28;20061;-84
2023/05/18 04:11:21;;;;;;;12.15;3.88;;;11.30;99.90;;;;;;5030007;28;20034;-85
2023/05/18 04:13:46;;;;;;;4.20;2.15;;;11.30;99.90;;;;;;5032009;28;20442;-85
2023/05/18 04:16:12;;;;;;;7.70;2.08;;;11.30;99.90;;;;;;5032362;28;20517;-84
2023/05/18 04:18:40;;;;;;;8.48;2.53;;;11.30;99.90;;;;;;5031118;28;20025;-87
2023/05/18 04:21:06;;;;;;;3.38;1.77;;;11.30;99.90;;;;;;5032053;28;20086;-86
2023/05/18 04:23:37;;;;;;;12.23;2.50;;;11.30;99.90;;;;;;5031620;28;20029;-85
2023/05/18 04:26:04;;;;;;;6.82;2.53;;;11.30;99.90;;;;;;5031406;28;20434;-85
2023/05/18 04:28:30;;;;;;;4.13;2.08;;;11.30;99.90;;;;;;5031671;28;20026;-86
2023/05/18 04:30:55;;;;;;;15.25;2.63;;;12.00;99.90;;;;;;5030690;28;20139;-85
2023/05/18 04:33:21;;;;;;;5.93;2.08;;;11.30;99.90;;;;;;5031655;28;20537;-85
2023/05/18 04:35:47;;;;;;;6.32;2.40;;;11.30;99.90;;;;;;5031414;28;20430;-85
2023/05/18 04:38:13;;;;;;;6.15;2.20;;;11.00;99.90;;;;;;5030909;28;20473;-85
2023/05/18 04:40:41;;;;;;;8.20;2.72;;;10.80;99.90;;;;;;5031344;28;20393;-85
2023/05/18 04:43:07;;;;;;;6.22;2.65;;;10.80;99.90;;;;;;5031593;28;20039;-85
2023/05/18 04:45:32;;;;;;;7.90;2.45;;;10.90;99.90;;;;;;5030555;28;20053;-85
2023/05/18 04:47:58;;;;;;;10.35;2.60;;;10.80;99.90;;;;;;5031343;28;20025;-85
2023/05/18 04:50:23;;;;;;;12.98;3.03;;;10.80;99.90;;;;;;5030815;28;20389;-85
2023/05/18 04:52:50;;;;;;;3.60;2.22;;;10.90;99.90;;;;;;5030548;28;20104;-86
2023/05/18 04:55:21;;;;;;;8.95;2.80;;;10.90;99.90;;;;;;5031178;28;20564;-84
2023/05/18 04:57:48;;;;;;;7.10;2.60;;;10.80;99.90;;;;;;5031090;28;20058;-85
2023/05/18 05:00:14;;;;;;;5.32;2.22;;;10.80;99.90;;;;;;5030608;28;20122;-85
2023/05/18 05:02:40;;;;;;;10.40;2.40;;;10.90;99.90;;;;;;5030910;28;20029;-84
2023/05/18 05:05:07;;;;;;;9.93;2.95;;;11.00;99.90;;;;;;5031227;28;20476;-86
2023/05/18 05:07:32;;;;;;;9.80;3.17;;;11.00;99.90;;;;;;5030310;28;20030;-84
2023/05/18 05:09:58;;;;;;;6.55;2.78;;;11.10;99.90;;;;;;5069882;27;20044;-85
2023/05/18 05:12:23;;;;;;;6.82;2.75;;;11.10;99.90;;;;;;5030383;28;20026;-84
2023/05/18 05:14:49;;;;;;;7.07;3.00;;;11.10;99.90;;;;;;5029238;28;20021;-84
2023/05/18 05:17:14;;;;;;;9.95;3.13;;;11.20;99.90;;;;;;5030542;28;20108;-85
2023/05/18 05:19:41;;;;;;;11.27;2.92;;;11.20;99.90;;;;;;5030178;28;20375;-85
2023/05/18 05:22:06;;;;;;;11.75;3.80;;;11.30;99.90;;;;;;5029470;28;20036;-86
2023/05/18 05:24:32;;;;;;;4.95;2.45;;;11.30;99.90;;;;;;5030441;28;20021;-86
2023/05/18 05:26:57;;;;;;;10.50;2.85;;;11.30;99.90;;;;;;5029696;28;20057;-85
2023/05/18 05:29:25;;;;;;;9.00;2.97;;;11.30;99.90;;;;;;5030434;28;20057;-86
2023/05/18 05:31:50;;;;;;;10.35;2.97;;;11.50;99.90;;;;;;5029544;28;20090;-87
2023/05/18 05:34:16;;;;;;;12.35;3.13;;;11.30;99.90;;;;;;5029041;28;20025;-86
2023/05/18 05:36:42;;;;;;;7.22;2.63;;;11.20;99.90;;;;;;5029778;28;20028;-87
2023/05/18 05:39:07;;;;;;;14.57;3.03;;;11.20;99.90;;;;;;5029725;28;20021;-86
2023/05/18 05:41:33;;;;;;;7.93;2.60;;;11.30;99.90;;;;;;5072795;27;20290;-86
2023/05/18 05:43:58;;;;;;;7.38;3.00;;;11.20;99.90;;;;;;5072573;27;20049;-86
2023/05/18 05:46:24;;;;;;;9.82;3.70;;;11.30;99.90;;;;;;5072835;27;20033;-86
2023/05/18 05:48:49;;;;;;;7.45;3.35;;;11.30;99.90;;;;;;5039093;27;20154;-87
2023/05/18 05:51:16;;;;;;;10.38;3.20;;;11.20;99.90;;;;;;5076848;27;20045;-87
2023/05/18 05:53:42;;;;;;;9.38;2.90;;;11.20;99.90;;;;;;5038796;27;20028;-87
2023/05/18 05:56:08;;;;;;;13.07;2.95;;;11.20;99.90;;;;;;5023431;28;20032;-87
2023/05/18 05:58:33;;;;;;;6.57;2.40;;;11.20;99.90;;;;;;5029880;28;20022;-85
2023/05/18 06:00:59;;;;;;;8.35;3.47;;;11.30;99.90;;;;;;5030152;28;20059;-85
2023/05/18 06:03:25;;;;;;;10.35;3.17;;;11.30;99.90;;;;;;5029343;28;20074;-86
2023/05/18 06:05:50;;;;;;;9.68;3.20;;;11.30;99.90;;;;;;5029685;28;20030;-86
2023/05/18 06:08:16;;;;;;;7.43;3.10;;;11.30;99.90;;;;;;5027107;28;20029;-85
2023/05/18 06:10:42;;;;;;;6.97;2.80;;;11.40;99.90;;;;;;5029380;28;20064;-86
2023/05/18 06:13:07;;;;;;;10.30;2.83;;;11.40;99.90;;;;;;5029482;28;20526;-85
2023/05/18 06:15:33;;;;;;;8.82;3.25;;;11.40;99.90;;;;;;5025634;28;20021;-85
2023/05/18 06:17:58;;;;;;;10.00;3.30;;;11.40;99.90;;;;;;5121790;27;20079;-85
2023/05/18 06:20:25;;;;;;;7.70;2.35;;;11.50;99.90;;;;;;5099409;27;20023;-86
2023/05/18 06:22:50;;;;;;;8.73;2.67;;;11.50;99.90;;;;;;5132069;27;20387;-90
2023/05/18 06:25:17;;;;;;;11.00;2.90;;;11.50;99.90;;;;;;5131907;27;20023;-94
2023/05/18 06:27:43;;;;;;;9.88;2.88;;;11.50;99.90;;;;;;5107496;27;20053;-85
2023/05/18 06:30:09;;;;;;;9.40;2.50;;;11.50;99.90;;;;;;5131944;27;20027;-85
2023/05/18 06:32:36;;;;;;;17.08;3.22;;;11.60;99.90;;;;;;5131209;27;20030;-86
2023/05/18 06:35:02;;;;;;;7.93;2.63;;;11.60;99.90;;;;;;5131514;27;20023;-85
2023/05/18 06:37:28;;;;;;;12.73;2.55;;;11.60;99.90;;;;;;5131267;27;20112;-85
2023/05/18 06:39:54;;;;;;;7.93;2.47;;;11.60;99.90;;;;;;5131934;27;20054;-85
2023/05/18 06:42:19;;;;;;;15.38;2.38;;;11.70;99.90;;;;;;5109391;27;20033;-85
2023/05/18 06:44:45;;;;;;;10.05;2.53;;;11.60;99.90;;;;;;5098807;27;20043;-85
2023/05/18 06:47:11;;;;;;;9.90;2.70;;;11.70;99.90;;;;;;5132044;27;20019;-85
2023/05/18 06:49:36;;;;;;;9.15;2.50;;;11.70;99.90;;;;;;5131355;27;20027;-84
2023/05/18 06:52:02;;;;;;;10.38;3.45;;;11.70;99.90;;;;;;5131248;27;20046;-85
2023/05/18 06:54:28;;;;;;;10.15;2.45;;;11.70;99.90;;;;;;5131853;27;20019;-85
2023/05/18 06:56:54;;;;;;;10.50;2.45;;;11.70;99.90;;;;;;5130297;27;20381;-85
2023/05/18 06:59:21;;;;;;;9.38;2.50;;;11.60;99.90;;;;;;5131254;27;20106;-84
2023/05/18 07:01:46;;;;;;;13.77;2.85;;;11.80;99.90;;;;;;5131570;27;20405;-85
2023/05/18 07:04:12;;;;;;;11.43;2.80;;;11.80;99.90;;;;;;5131638;27;20019;-85
2023/05/18 07:06:37;;;;;;;10.27;2.70;;;11.80;99.90;;;;;;5129775;27;20015;-84
2023/05/18 07:09:03;;;;;;;11.52;2.90;;;11.80;99.90;;;;;;5131436;28;20035;-84
2023/05/18 07:11:29;;;;;;;13.40;2.85;;;11.70;99.90;;;;;;5105853;27;20039;-84
2023/05/18 07:13:55;;;;;;;11.25;2.70;;;11.70;99.90;;;;;;5125934;28;20105;-87
2023/05/18 07:16:20;;;;;;;10.63;2.03;;;11.80;99.90;;;;;;5131033;28;20034;-83
2023/05/18 07:18:46;;;;;;;9.20;2.67;;;12.50;99.90;;;;;;5131286;28;20023;-84
2023/05/18 07:21:11;;;;;;;6.97;2.30;;;11.80;99.90;;;;;;5131066;28;20392;-84
2023/05/18 07:23:37;;;;;;;9.30;2.88;;;11.90;99.90;;;;;;5131158;28;20015;-83
2023/05/18 07:26:02;;;;;;;9.65;2.30;;;11.90;99.90;;;;;;5131554;28;20050;-84
2023/05/18 07:28:28;;;;;;;10.88;2.88;;;12.40;99.90;;;;;;5130681;28;20494;-85
2023/05/18 07:30:54;;;;;;;9.80;2.40;;;12.80;99.90;;;;;;5130733;28;20035;-86
2023/05/18 07:33:19;;;;;;;7.50;2.63;;;11.90;99.90;;;;;;5132093;28;20467;-85
2023/05/18 07:35:45;;;;;;;6.22;2.45;;;12.20;99.90;;;;;;5130512;28;20062;-84
2023/05/18 07:38:10;;;;;;;8.73;2.17;;;12.00;99.90;;;;;;5131331;28;20026;-85
2023/05/18 07:40:36;;;;;;;8.75;2.50;;;11.90;99.90;;;;;;5130308;28;20021;-85
2023/05/18 07:43:01;;;;;;;9.13;2.55;;;11.90;99.90;;;;;;5131192;28;20019;-85
2023/05/18 07:45:27;;;;;;;11.02;2.83;;;12.00;99.90;;;;;;5132446;27;20066;-85
2023/05/18 07:47:53;;;;;;;10.52;2.55;;;12.00;99.90;;;;;;5115325;27;20023;-84
2023/05/18 07:50:18;;;;;;;14.80;2.95;;;12.00;99.90;;;;;;5136700;27;20048;-84
2023/05/18 07:52:44;;;;;;;13.48;3.13;;;12.00;99.90;;;;;;5136657;27;20026;-85
2023/05/18 07:55:10;;;;;;;14.60;2.63;;;12.00;99.90;;;;;;5135762;27;20031;-84
2023/05/18 07:57:35;;;;;;;7.55;2.55;;;12.10;99.90;;;;;;5089754;27;20021;-86
2023/05/18 08:00:03;;;;;;;11.23;3.08;;;12.10;99.90;;;;;;5029235;28;20074;-85
2023/05/18 08:02:29;;;;;;;18.38;3.10;;;12.20;99.90;;;;;;5031490;28;20097;-86
2023/05/18 08:04:54;;;;;;;9.27;2.83;;;12.10;99.90;;;;;;5030300;28;20541;-84
2023/05/18 08:07:20;;;;;;;11.88;2.80;;;12.40;99.90;;;;;;5030827;28;20516;-82
2023/05/18 08:09:45;;;;;;;13.77;2.70;;;12.00;99.90;;;;;;5021951;28;20099;-83
2023/05/18 08:12:11;;;;;;;8.25;2.72;;;12.00;99.90;;;;;;5031814;28;20137;-83
2023/05/18 08:14:37;;;;;;;9.73;2.40;;;12.00;99.90;;;;;;5029742;28;20484;-82
2023/05/18 08:17:03;;;;;;;10.60;2.60;;;12.00;99.90;;;;;;5028408;28;20381;-85
2023/05/18 08:19:28;;;;;;;12.95;2.67;;;12.00;99.90;;;;;;5011099;28;20067;-84
2023/05/18 08:21:54;;;;;;;8.75;2.10;;;12.10;99.90;;;;;;5011008;28;20558;-84
2023/05/18 08:24:19;;;;;;;12.95;2.67;;;12.20;99.90;;;;;;5010820;28;20377;-85
2023/05/18 08:26:45;;;;;;;14.88;2.63;;;12.00;99.90;;;;;;5011371;28;20034;-84
2023/05/18 08:29:10;;;;;;;15.02;2.75;;;12.10;99.90;;;;;;5009870;28;20110;-85
2023/05/18 08:31:37;;;;;;;16.38;2.65;;;11.90;99.90;;;;;;5007655;28;20060;-85
2023/05/18 08:34:07;;;;;;;8.88;2.55;;;11.90;99.90;;;;;;5007991;28;20024;-85
2023/05/18 08:36:36;;;;;;;11.77;2.72;;;12.00;99.90;;;;;;5007468;28;20083;-84
2023/05/18 08:39:03;;;;;;;12.35;2.97;;;12.00;99.90;;;;;;5006945;28;20030;-85
2023/05/18 08:41:34;;;;;;;7.50;3.00;;;12.00;99.90;;;;;;5007329;28;20097;-85
2023/05/18 08:44:03;;;;;;;8.50;2.60;;;12.00;99.90;;;;;;5008128;28;20057;-85
2023/05/18 08:46:34;;;;;;;7.35;2.22;;;11.90;99.90;;;;;;5010830;28;20026;-84
2023/05/18 08:49:02;;;;;;;9.98;2.88;;;11.90;99.90;;;;;;5011003;28;20101;-85
2023/05/18 08:51:32;;;;;;;9.32;3.03;;;11.90;99.90;;;;;;5011061;28;20034;-85
2023/05/18 08:53:58;;;;;;;7.65;2.80;;;11.80;99.90;;;;;;5011881;28;20022;-85
2023/05/18 08:56:25;;;;;;;11.35;2.75;;;11.70;99.90;;;;;;5011142;28;20038;-85
2023/05/18 08:58:54;;;;;;;10.52;3.05;;;11.70;99.90;;;;;;5010546;28;20026;-85
2023/05/18 09:01:22;;;;;;;6.88;2.90;;;11.80;99.90;;;;;;5011684;28;20037;-85
2023/05/18 09:03:48;;;;;;;11.20;2.92;;;11.90;99.90;;;;;;5011439;28;20056;-85
2023/05/18 09:06:14;;;;;;;16.17;2.70;;;11.90;99.90;;;;;;5010682;28;20584;-85
2023/05/18 09:08:40;;;;;;;6.57;3.00;;;11.90;99.90;;;;;;5011110;28;20021;-84
2023/05/18 09:11:07;;;;;;;10.45;3.08;;;11.70;99.90;;;;;;5011308;28;20489;-85
2023/05/18 09:13:33;;;;;;;11.65;2.70;;;11.80;99.90;;;;;;5010332;28;20512;-85
2023/05/18 09:15:58;;;;;;;16.63;2.65;;;11.90;99.90;;;;;;5011306;28;20061;-86
2023/05/18 09:18:24;;;;;;;12.20;2.67;;;12.00;99.90;;;;;;5011180;28;20069;-85
2023/05/18 09:20:50;;;;;;;12.20;2.88;;;11.90;99.90;;;;;;5010293;28;20029;-86
2023/05/18 09:23:18;;;;;;;13.02;2.97;;;12.00;99.90;;;;;;5011119;28;20030;-85
2023/05/18 09:25:45;;;;;;;9.60;2.92;;;12.00;99.90;;;;;;5011207;28;20090;-85
2023/05/18 09:28:13;;;;;;;8.05;2.58;;;12.60;99.90;;;;;;5010587;28;20024;-85
2023/05/18 09:30:42;;;;;;;12.35;4.00;;;12.00;99.90;;;;;;5010962;28;20079;-86
2023/05/18 09:33:16;;;;;;;8.40;2.42;;;11.90;99.90;;;;;;5010069;28;20052;-85
2023/05/18 09:35:44;;;;;;;7.88;3.05;;;11.90;99.90;;;;;;5010792;28;20495;-85
2023/05/18 09:38:12;;;;;;;10.38;2.70;;;11.80;99.90;;;;;;5010913;28;20358;-85
2023/05/18 09:40:42;;;;;;;9.82;3.47;;;11.90;99.90;;;;;;5010179;28;20030;-85
2023/05/18 09:43:08;;;;;;;10.73;2.80;;;11.90;99.90;;;;;;5010950;28;20117;-85
2023/05/18 09:45:41;;;;;;;7.88;3.22;;;12.10;99.90;;;;;;5010446;28;20133;-85
2023/05/18 09:48:06;;;;;;;11.30;2.92;;;12.20;99.90;;;;;;5010238;28;20369;-85
2023/05/18 09:50:33;;;;;;;10.45;2.55;;;12.10;99.90;;;;;;5010469;28;20037;-85
2023/05/18 09:52:59;;;;;;;8.63;3.55;;;12.10;99.90;;;;;;5011003;28;20026;-86
2023/05/18 09:55:25;;;;;;;6.65;2.47;;;12.00;99.90;;;;;;5009777;28;20541;-85
2023/05/18 09:57:51;;;;;;;10.15;3.20;;;12.10;99.90;;;;;;5010350;28;20106;-85
2023/05/18 10:00:19;;;;;;;13.15;3.38;;;12.00;99.90;;;;;;5010679;28;20026;-85
2023/05/18 10:02:47;;;;;;;13.20;3.00;;;12.10;99.90;;;;;;5009639;28;20034;-85
2023/05/18 10:05:20;;;;;;;13.70;3.47;;;12.00;99.90;;;;;;5010760;28;20523;-86
2023/05/18 10:07:46;;;;;;;8.73;2.95;;;12.00;99.90;;;;;;5010083;28;20040;-85
2023/05/18 10:10:11;;;;;;;9.55;3.05;;;12.10;99.90;;;;;;5010426;28;20124;-85
2023/05/18 10:12:40;;;;;;;9.40;2.95;;;12.20;99.90;;;;;;5009986;28;20014;-86
2023/05/18 10:15:13;;;;;;;9.95;2.70;;;12.10;99.90;;;;;;5010384;28;20028;-85
2023/05/18 10:17:39;;;;;;;12.30;3.58;;;12.10;99.90;;;;;;5009318;28;20113;-86
2023/05/18 10:20:08;;;;;;;12.32;3.30;;;12.20;99.90;;;;;;5010231;28;20033;-85
2023/05/18 10:22:35;;;;;;;11.20;3.53;;;12.20;99.90;;;;;;5009379;28;20557;-85
2023/05/18 10:25:03;;;;;;;13.55;3.65;;;12.30;99.90;;;;;;5010338;28;20049;-86
2023/05/18 10:27:33;;;;;;;8.40;3.13;;;12.30;99.90;;;;;;5010376;28;20112;-85
2023/05/18 10:30:02;;;;;;;14.75;3.17;;;12.30;99.90;;;;;;5009311;28;20037;-86
2023/05/18 10:32:29;;;;;;;9.82;3.47;;;12.30;99.90;;;;;;5010349;28;20037;-86
2023/05/18 10:34:56;;;;;;;8.80;2.60;;;12.30;99.90;;;;;;5009706;28;20033;-85
2023/05/18 10:37:23;;;;;;;9.32;3.10;;;12.30;99.90;;;;;;5009319;28;20034;-85
2023/05/18 10:39:50;;;;;;;6.30;2.88;;;12.30;99.90;;;;;;5009837;28;20022;-85
2023/05/18 10:42:17;;;;;;;14.43;2.95;;;12.30;99.90;;;;;;5010005;28;20478;-85
2023/05/18 10:44:46;;;;;;;7.65;2.83;;;12.30;99.90;;;;;;5008708;28;20077;-86
2023/05/18 10:47:13;;;;;;;12.48;3.28;;;12.40;99.90;;;;;;5010229;28;20116;-86
2023/05/18 10:49:41;;;;;;;14.13;3.60;;;12.50;99.90;;;;;;5009561;28;20028;-85
2023/05/18 10:52:10;;;;;;;9.60;2.70;;;12.50;99.90;;;;;;5009112;28;20056;-85
2023/05/18 10:54:36;;;;;;;10.27;2.80;;;12.50;99.90;;;;;;5009667;28;20022;-86
2023/05/18 10:57:02;;;;;;;10.35;3.22;;;12.50;99.90;;;;;;5009709;28;20441;-86
2023/05/18 10:59:27;;;;;;;9.82;2.90;;;12.70;99.90;;;;;;5009050;28;20079;-85
2023/05/18 11:01:54;;;;;;;7.13;2.97;;;12.70;99.90;;;;;;5009503;28;20446;-85
2023/05/18 11:04:25;;;;;;;10.27;2.83;;;12.60;99.90;;;;;;5009796;28;20026;-86
2023/05/18 11:06:57;;;;;;;5.63;2.65;;;12.70;99.90;;;;;;5009048;28;20075;-86
2023/05/18 11:09:23;;;;;;;10.75;3.53;;;12.80;99.90;;;;;;5009761;28;20026;-85
2023/05/18 11:11:56;;;;;;;14.23;2.97;;;12.90;99.90;;;;;;5008991;28;20083;-86
2023/05/18 11:14:27;;;;;;;12.65;3.63;;;13.00;99.90;;;;;;5009809;28;20030;-86
2023/05/18 11:16:53;;;;;;;10.63;3.08;;;13.00;99.90;;;;;;5009302;28;20057;-86
2023/05/18 11:19:24;;;;;;;10.95;3.30;;;13.10;99.90;;;;;;5008953;28;20415;-86
2023/05/18 11:21:51;;;;;;;11.35;2.88;;;13.10;99.90;;;;;;5012416;28;20036;-86
2023/05/18 11:24:30;;;;;;;11.63;3.42;;;13.00;99.90;;;;;;5013026;28;20064;-86
2023/05/18 11:27:05;;;;;;;9.50;3.22;;;13.10;99.90;;;;;;5012215;28;20522;-86
2023/05/18 11:29:34;;;;;;;7.50;2.88;;;13.10;99.90;;;;;;5012983;28;20034;-86
2023/05/18 11:32:01;;;;;;;8.15;3.25;;;13.20;99.90;;;;;;5012963;28;20113;-86
2023/05/18 11:34:38;;;;;;;7.68;2.90;;;13.10;99.90;;;;;;5012265;28;20022;-85
2023/05/18 11:37:05;;;;;;;14.23;4.47;;;13.20;99.90;;;;;;5012982;28;20026;-86
2023/05/18 11:39:31;;;;;;;8.45;2.72;;;13.20;99.90;;;;;;5012973;28;20029;-86
2023/05/18 11:42:04;;;;;;;15.57;3.53;;;13.30;99.90;;;;;;5011976;28;20077;-85
2023/05/18 11:44:31;;;;;;;8.38;3.40;;;13.30;99.90;;;;;;5012694;28;20049;-86
2023/05/18 11:47:02;;;;;;;9.88;3.45;;;13.30;99.90;;;;;;5011858;28;20052;-86
2023/05/18 11:49:47;;;;;;;10.50;3.22;;;13.40;99.90;;;;;;5012929;28;20104;-85
2023/05/18 11:52:19;;;;;;;10.25;3.33;;;13.50;99.90;;;;;;5012592;28;20041;-85
2023/05/18 11:54:52;;;;;;;18.00;4.57;;;13.50;99.90;;;;;;5011609;28;20029;-85
2023/05/18 11:57:22;;;;;;;6.68;3.15;;;13.50;99.90;;;;;;5012489;28;20415;-86
2023/05/18 11:59:53;;;;;;;12.30;4.30;;;13.40;99.90;;;;;;5012348;28;20026;-86
2023/05/18 12:02:23;;;;;;;;;;;13.40;99.90;;;;;;5012366;28;20030;-86
2023/05/18 12:04:52;;;;;;;6.47;3.10;;;13.40;99.90;;;;;;5012441;28;19937;-86
2023/05/18 12:07:19;;;;;;;11.43;3.55;;;13.40;99.90;;;;;;5012834;28;20034;-85
2023/05/18 12:09:46;;;;;;;6.40;3.13;;;13.40;99.90;;;;;;5011283;28;20057;-86
2023/05/18 12:12:16;;;;;;;11.65;3.80;;;13.40;99.90;;;;;;5012285;28;20036;-85
2023/05/18 12:14:43;;;;;;;16.08;3.95;;;13.50;99.90;;;;;;5012080;28;20026;-86
2023/05/18 12:17:11;;;;;;;15.02;3.95;;;13.50;99.90;;;;;;5011462;28;20037;-86
2023/05/18 12:19:42;;;;;;;8.95;4.22;;;13.60;99.90;;;;;;5012278;28;20101;-86
2023/05/18 12:22:08;;;;;;;11.88;3.55;;;13.60;99.90;;;;;;5012364;28;20024;-86
2023/05/18 12:24:34;;;;;;;9.38;3.55;;;13.60;99.90;;;;;;5012289;28;20037;-86
2023/05/18 12:27:03;;;;;;;12.43;4.50;;;13.60;99.90;;;;;;5012091;28;20033;-85
2023/05/18 12:29:29;;;;;;;8.18;3.63;;;13.50;99.90;;;;;;5011457;28;20047;-86
2023/05/18 12:31:55;;;;;;;10.85;2.97;;;13.50;99.90;;;;;;5010180;28;20034;-86
2023/05/18 12:34:20;;;;;;;9.70;3.25;;;14.10;99.90;;;;;;5012133;28;20038;-86
2023/05/18 12:36:52;;;;;;;9.55;3.25;;;13.60;99.90;;;;;;5011032;28;20037;-86
2023/05/18 12:39:19;;;;;;;4.72;3.30;;;13.70;99.90;;;;;;5011961;28;20026;-84
2023/05/18 12:41:44;;;;;;;10.68;3.35;;;13.80;99.90;;;;;;5011805;28;20030;-86
2023/05/18 12:44:10;;;;;;;10.45;3.33;;;13.90;99.90;;;;;;5011033;28;20053;-86